sensor_id;sensor_type;location;lat;lon;timestamp;pressure;altitude;pressure_sealevel;temperature;humidity
75312;BME280;63906;55.686;37.532;2023-06-04T00:01:04;99720.22;;;6.67;83.60
75312;BME280;63906;55.686;37.532;2023-06-04T00:06:05;99724.31;;;6.70;83.69
75312;BME280;63906;55.686;37.532;2023-06-04T00:11:05;99716.94;;;6.49;83.68
75312;BME280;63906;55.686;37.532;2023-06-04T00:16:06;99722.97;;;6.50;83.17
75312;BME280;63906;55.686;37.532;2023-06-04T00:21:06;99756.50;;;6.62;83.05
75312;BME280;63906;55.686;37.532;2023-06-04T00:26:07;99763.22;;;6.65;83.10
75312;BME280;63906;55.686;37.532;2023-06-04T00:31:07;99738.66;;;6.50;82.51
75312;BME280;63906;55.686;37.532;2023-06-04T00:36:08;99757.31;;;6.46;83.10
75312;BME280;63906;55.686;37.532;2023-06-04T00:41:09;99746.81;;;6.38;83.47
75312;BME280;63906;55.686;37.532;2023-06-04T00:46:09;99754.91;;;6.19;83.67
75312;BME280;63906;55.686;37.532;2023-06-04T00:51:19;99751.41;;;6.02;84.34
75312;BME280;63906;55.686;37.532;2023-06-04T00:56:20;99749.97;;;6.08;83.91
75312;BME280;63906;55.686;37.532;2023-06-04T01:06:40;99785.31;;;6.20;84.71
75312;BME280;63906;55.686;37.532;2023-06-04T01:11:43;99789.91;;;6.26;83.98
75312;BME280;63906;55.686;37.532;2023-06-04T01:16:49;99793.13;;;6.20;84.83
75312;BME280;63906;55.686;37.532;2023-06-04T01:21:50;99780.50;;;6.07;84.05
75312;BME280;63906;55.686;37.532;2023-06-04T01:26:52;99796.38;;;6.14;84.41
75312;BME280;63906;55.686;37.532;2023-06-04T01:31:56;99787.38;;;6.08;83.87
75312;BME280;63906;55.686;37.532;2023-06-04T01:36:57;99788.00;;;6.02;84.28
75312;BME280;63906;55.686;37.532;2023-06-04T01:41:58;99756.97;;;5.73;85.09
75312;BME280;63906;55.686;37.532;2023-06-04T01:46:58;99810.22;;;5.98;84.97
75312;BME280;63906;55.686;37.532;2023-06-04T01:51:59;99814.97;;;6.03;85.02
75312;BME280;63906;55.686;37.532;2023-06-04T01:56:59;99811.69;;;6.01;84.26
75312;BME280;63906;55.686;37.532;2023-06-04T02:02:00;99812.66;;;6.00;84.43
75312;BME280;63906;55.686;37.532;2023-06-04T02:07:02;99827.25;;;6.10;84.56
75312;BME280;63906;55.686;37.532;2023-06-04T02:12:03;99840.34;;;6.18;83.52
75312;BME280;63906;55.686;37.532;2023-06-04T02:17:05;99838.38;;;6.20;82.84
75312;BME280;63906;55.686;37.532;2023-06-04T02:22:13;99822.53;;;6.14;82.00
75312;BME280;63906;55.686;37.532;2023-06-04T02:27:14;99845.78;;;6.25;82.11
75312;BME280;63906;55.686;37.532;2023-06-04T02:32:15;99853.97;;;6.30;80.78
75312;BME280;63906;55.686;37.532;2023-06-04T02:37:16;99862.81;;;6.37;80.80
75312;BME280;63906;55.686;37.532;2023-06-04T02:42:16;99875.91;;;6.45;81.47
75312;BME280;63906;55.686;37.532;2023-06-04T02:47:17;99836.13;;;6.26;82.21
75312;BME280;63906;55.686;37.532;2023-06-04T02:52:19;99809.13;;;6.09;80.81
75312;BME280;63906;55.686;37.532;2023-06-04T02:57:21;99865.47;;;6.45;79.67
75312;BME280;63906;55.686;37.532;2023-06-04T03:02:22;99873.34;;;6.54;80.40
75312;BME280;63906;55.686;37.532;2023-06-04T03:07:22;99898.25;;;6.66;80.95
75312;BME280;63906;55.686;37.532;2023-06-04T03:12:23;99893.50;;;6.69;81.67
75312;BME280;63906;55.686;37.532;2023-06-04T03:17:25;99905.66;;;6.79;81.13
75312;BME280;63906;55.686;37.532;2023-06-04T03:22:26;99911.06;;;6.85;81.35
75312;BME280;63906;55.686;37.532;2023-06-04T03:27:27;99918.94;;;6.93;82.30
75312;BME280;63906;55.686;37.532;2023-06-04T03:32:27;99916.50;;;6.92;82.57
75312;BME280;63906;55.686;37.532;2023-06-04T03:37:28;99922.25;;;7.12;82.09
75312;BME280;63906;55.686;37.532;2023-06-04T03:42:28;99913.75;;;7.10;81.55
75312;BME280;63906;55.686;37.532;2023-06-04T03:47:29;99931.28;;;7.17;82.19
75312;BME280;63906;55.686;37.532;2023-06-04T03:52:30;99940.13;;;7.33;81.95
75312;BME280;63906;55.686;37.532;2023-06-04T03:57:31;99929.50;;;7.26;81.49
75312;BME280;63906;55.686;37.532;2023-06-04T04:02:32;99947.88;;;7.50;82.11
75312;BME280;63906;55.686;37.532;2023-06-04T04:07:33;99956.69;;;7.57;82.19
75312;BME280;63906;55.686;37.532;2023-06-04T04:12:34;99949.84;;;7.56;82.30
75312;BME280;63906;55.686;37.532;2023-06-04T04:17:34;99921.03;;;7.48;81.96
75312;BME280;63906;55.686;37.532;2023-06-04T04:22:35;99957.88;;;7.71;80.71
75312;BME280;63906;55.686;37.532;2023-06-04T04:27:36;99956.06;;;7.88;81.02
75312;BME280;63906;55.686;37.532;2023-06-04T04:32:41;99967.56;;;7.95;80.02
75312;BME280;63906;55.686;37.532;2023-06-04T04:37:48;99967.56;;;7.95;79.92
75312;BME280;63906;55.686;37.532;2023-06-04T04:42:49;99958.06;;;8.02;80.53
75312;BME280;63906;55.686;37.532;2023-06-04T04:47:50;99959.34;;;8.15;80.06
75312;BME280;63906;55.686;37.532;2023-06-04T04:52:53;99968.50;;;8.27;78.99
75312;BME280;63906;55.686;37.532;2023-06-04T04:57:54;99941.97;;;8.22;79.20
75312;BME280;63906;55.686;37.532;2023-06-04T05:02:54;99962.25;;;8.44;79.54
75312;BME280;63906;55.686;37.532;2023-06-04T05:07:55;99957.34;;;8.57;79.90
75312;BME280;63906;55.686;37.532;2023-06-04T05:12:57;99983.31;;;8.83;78.66
75312;BME280;63906;55.686;37.532;2023-06-04T05:17:58;99965.09;;;8.82;78.14
75312;BME280;63906;55.686;37.532;2023-06-04T05:23:00;99991.56;;;9.11;75.67
75312;BME280;63906;55.686;37.532;2023-06-04T05:28:02;99972.16;;;8.89;77.57
75312;BME280;63906;55.686;37.532;2023-06-04T05:33:04;99976.75;;;9.18;76.43
75312;BME280;63906;55.686;37.532;2023-06-04T05:38:05;99973.84;;;9.44;75.16
75312;BME280;63906;55.686;37.532;2023-06-04T05:43:06;99977.22;;;9.53;76.18
75312;BME280;63906;55.686;37.532;2023-06-04T05:48:07;99975.31;;;9.70;75.09
75312;BME280;63906;55.686;37.532;2023-06-04T05:53:08;99977.75;;;9.94;75.74
75312;BME280;63906;55.686;37.532;2023-06-04T05:58:09;99977.72;;;10.17;76.12
75312;BME280;63906;55.686;37.532;2023-06-04T06:03:09;99982.50;;;10.37;71.06
75312;BME280;63906;55.686;37.532;2023-06-04T06:08:10;99992.53;;;10.56;70.51
75312;BME280;63906;55.686;37.532;2023-06-04T06:13:10;99967.44;;;10.60;68.73
75312;BME280;63906;55.686;37.532;2023-06-04T06:18:11;99963.44;;;10.79;66.66
75312;BME280;63906;55.686;37.532;2023-06-04T06:23:11;99997.34;;;11.33;69.34
75312;BME280;63906;55.686;37.532;2023-06-04T06:28:12;100001.47;;;11.93;65.62
75312;BME280;63906;55.686;37.532;2023-06-04T06:33:13;100005.94;;;11.93;63.27
75312;BME280;63906;55.686;37.532;2023-06-04T06:38:14;100003.38;;;11.63;64.54
75312;BME280;63906;55.686;37.532;2023-06-04T06:43:14;100000.94;;;11.83;64.06
75312;BME280;63906;55.686;37.532;2023-06-04T06:48:15;99988.78;;;12.31;64.45
75312;BME280;63906;55.686;37.532;2023-06-04T06:53:16;99974.38;;;12.62;59.82
75312;BME280;63906;55.686;37.532;2023-06-04T06:58:16;99961.22;;;12.75;60.83
75312;BME280;63906;55.686;37.532;2023-06-04T07:03:17;99991.84;;;12.63;63.12
75312;BME280;63906;55.686;37.532;2023-06-04T07:08:17;99990.13;;;12.49;60.76
75312;BME280;63906;55.686;37.532;2023-06-04T07:13:18;100007.47;;;12.92;62.58
75312;BME280;63906;55.686;37.532;2023-06-04T07:18:18;99988.75;;;12.94;59.11
75312;BME280;63906;55.686;37.532;2023-06-04T07:23:19;99969.00;;;13.31;56.43
75312;BME280;63906;55.686;37.532;2023-06-04T07:28:19;99999.13;;;13.30;54.51
75312;BME280;63906;55.686;37.532;2023-06-04T07:33:20;100008.59;;;13.18;59.13
75312;BME280;63906;55.686;37.532;2023-06-04T07:38:21;100001.28;;;12.85;58.44
75312;BME280;63906;55.686;37.532;2023-06-04T07:43:21;99999.97;;;13.03;60.01
75312;BME280;63906;55.686;37.532;2023-06-04T07:48:22;99998.69;;;13.27;57.37
75312;BME280;63906;55.686;37.532;2023-06-04T07:53:30;99994.72;;;13.70;53.60
75312;BME280;63906;55.686;37.532;2023-06-04T07:58:31;99995.19;;;14.00;56.17
75312;BME280;63906;55.686;37.532;2023-06-04T08:03:32;99975.56;;;13.49;60.57
75312;BME280;63906;55.686;37.532;2023-06-04T08:08:32;100011.97;;;13.53;56.67
75312;BME280;63906;55.686;37.532;2023-06-04T08:13:34;100006.13;;;13.71;56.01
75312;BME280;63906;55.686;37.532;2023-06-04T08:18:37;100003.31;;;13.92;55.98
75312;BME280;63906;55.686;37.532;2023-06-04T08:23:38;100005.38;;;14.23;52.71
75312;BME280;63906;55.686;37.532;2023-06-04T08:28:39;100004.13;;;14.19;56.77
75312;BME280;63906;55.686;37.532;2023-06-04T08:33:40;100013.91;;;14.19;49.94
75312;BME280;63906;55.686;37.532;2023-06-04T08:38:41;100011.66;;;13.89;47.94
75312;BME280;63906;55.686;37.532;2023-06-04T08:43:42;99995.13;;;13.61;53.91
75312;BME280;63906;55.686;37.532;2023-06-04T08:48:44;100015.53;;;14.40;51.28
75312;BME280;63906;55.686;37.532;2023-06-04T08:53:45;99999.97;;;14.96;48.11
75312;BME280;63906;55.686;37.532;2023-06-04T08:58:51;100031.78;;;14.90;51.75
75312;BME280;63906;55.686;37.532;2023-06-04T09:03:53;99973.38;;;14.38;50.97
75312;BME280;63906;55.686;37.532;2023-06-04T09:08:56;100015.97;;;14.57;51.98
75312;BME280;63906;55.686;37.532;2023-06-04T09:14:01;100017.38;;;14.79;53.46
75312;BME280;63906;55.686;37.532;2023-06-04T09:19:04;100029.28;;;15.15;49.97
75312;BME280;63906;55.686;37.532;2023-06-04T09:24:04;100013.84;;;15.43;47.98
75312;BME280;63906;55.686;37.532;2023-06-04T09:29:05;100001.75;;;15.92;48.32
75312;BME280;63906;55.686;37.532;2023-06-04T09:34:06;100025.56;;;16.55;42.81
75312;BME280;63906;55.686;37.532;2023-06-04T09:39:17;100010.16;;;16.82;46.78
75312;BME280;63906;55.686;37.532;2023-06-04T09:44:17;100036.19;;;16.80;42.89
75312;BME280;63906;55.686;37.532;2023-06-04T09:49:18;100013.94;;;16.93;49.22
75312;BME280;63906;55.686;37.532;2023-06-04T09:54:19;100016.25;;;17.56;43.08
75312;BME280;63906;55.686;37.532;2023-06-04T09:59:20;100030.03;;;17.95;37.49
75312;BME280;63906;55.686;37.532;2023-06-04T10:04:21;100036.94;;;17.72;42.15
75312;BME280;63906;55.686;37.532;2023-06-04T10:09:23;100007.53;;;18.44;47.27
75312;BME280;63906;55.686;37.532;2023-06-04T10:14:36;100015.63;;;19.94;44.96
75312;BME280;63906;55.686;37.532;2023-06-04T10:19:43;100026.69;;;22.06;38.99
75312;BME280;63906;55.686;37.532;2023-06-04T10:24:44;100013.31;;;20.14;46.89
75312;BME280;63906;55.686;37.532;2023-06-04T10:29:45;100013.25;;;17.94;43.36
75312;BME280;63906;55.686;37.532;2023-06-04T10:34:46;100005.19;;;16.24;46.01
75312;BME280;63906;55.686;37.532;2023-06-04T10:39:55;100009.50;;;15.55;49.39
75312;BME280;63906;55.686;37.532;2023-06-04T10:44:55;100029.97;;;15.86;47.06
75312;BME280;63906;55.686;37.532;2023-06-04T10:50:06;100038.69;;;16.50;51.19
75312;BME280;63906;55.686;37.532;2023-06-04T10:55:07;100020.59;;;17.20;44.73
75312;BME280;63906;55.686;37.532;2023-06-04T11:00:11;100008.47;;;17.06;41.77
75312;BME280;63906;55.686;37.532;2023-06-04T11:05:13;100017.59;;;17.47;42.87
75312;BME280;63906;55.686;37.532;2023-06-04T11:10:14;100014.69;;;20.50;49.71
75312;BME280;63906;55.686;37.532;2023-06-04T11:15:16;99988.34;;;23.78;32.44
75312;BME280;63906;55.686;37.532;2023-06-04T11:20:17;99991.84;;;24.55;31.56
75312;BME280;63906;55.686;37.532;2023-06-04T11:25:19;100009.72;;;22.70;31.29
75312;BME280;63906;55.686;37.532;2023-06-04T11:30:22;100011.28;;;20.38;36.23
75312;BME280;63906;55.686;37.532;2023-06-04T11:35:23;100022.84;;;20.77;33.63
75312;BME280;63906;55.686;37.532;2023-06-04T11:40:24;100007.16;;;22.11;33.93
75312;BME280;63906;55.686;37.532;2023-06-04T11:45:27;99998.53;;;26.16;26.78
75312;BME280;63906;55.686;37.532;2023-06-04T11:50:30;99998.63;;;29.08;27.20
75312;BME280;63906;55.686;37.532;2023-06-04T11:55:31;100011.13;;;27.27;27.78
75312;BME280;63906;55.686;37.532;2023-06-04T12:00:32;100002.09;;;22.94;43.19
75312;BME280;63906;55.686;37.532;2023-06-04T12:05:33;99994.66;;;20.53;34.81
75312;BME280;63906;55.686;37.532;2023-06-04T12:10:41;100016.38;;;19.32;41.59
75312;BME280;63906;55.686;37.532;2023-06-04T12:15:42;100034.22;;;19.31;39.84
75312;BME280;63906;55.686;37.532;2023-06-04T12:20:43;100008.97;;;19.51;40.98
75312;BME280;63906;55.686;37.532;2023-06-04T12:25:49;100001.53;;;20.65;39.64
75312;BME280;63906;55.686;37.532;2023-06-04T12:30:50;100001.53;;;23.90;30.36
75312;BME280;63906;55.686;37.532;2023-06-04T12:35:51;100003.28;;;27.63;37.78
75312;BME280;63906;55.686;37.532;2023-06-04T12:40:51;100014.97;;;30.11;43.64
75312;BME280;63906;55.686;37.532;2023-06-04T12:45:52;100006.88;;;29.53;30.04
75312;BME280;63906;55.686;37.532;2023-06-04T12:50:53;99987.03;;;26.82;26.58
75312;BME280;63906;55.686;37.532;2023-06-04T12:55:53;100014.47;;;24.24;41.55
75312;BME280;63906;55.686;37.532;2023-06-04T13:00:53;99997.19;;;22.38;32.71
75312;BME280;63906;55.686;37.532;2023-06-04T13:05:54;100005.78;;;21.76;33.45
75312;BME280;63906;55.686;37.532;2023-06-04T13:10:55;99989.72;;;21.76;33.24
75312;BME280;63906;55.686;37.532;2023-06-04T13:15:56;100007.91;;;23.38;31.55
75312;BME280;63906;55.686;37.532;2023-06-04T13:20:57;99982.03;;;23.12;32.21
75312;BME280;63906;55.686;37.532;2023-06-04T13:25:57;99995.34;;;21.74;34.05
75312;BME280;63906;55.686;37.532;2023-06-04T13:30:58;99988.88;;;20.61;38.73
75312;BME280;63906;55.686;37.532;2023-06-04T13:35:58;99972.84;;;19.60;37.04
75312;BME280;63906;55.686;37.532;2023-06-04T13:40:59;99986.25;;;20.10;38.18
75312;BME280;63906;55.686;37.532;2023-06-04T13:45:59;99990.53;;;20.28;34.72
75312;BME280;63906;55.686;37.532;2023-06-04T13:51:00;99984.25;;;19.44;42.42
75312;BME280;63906;55.686;37.532;2023-06-04T13:56:00;99982.09;;;20.36;37.61
75312;BME280;63906;55.686;37.532;2023-06-04T14:01:01;99986.47;;;19.75;38.36
75312;BME280;63906;55.686;37.532;2023-06-04T14:06:02;99989.59;;;19.15;40.36
75312;BME280;63906;55.686;37.532;2023-06-04T14:11:02;99980.75;;;18.86;43.17
75312;BME280;63906;55.686;37.532;2023-06-04T14:16:03;99977.88;;;18.41;36.56
75312;BME280;63906;55.686;37.532;2023-06-04T14:21:04;99956.09;;;18.09;38.79
75312;BME280;63906;55.686;37.532;2023-06-04T14:26:05;100001.84;;;18.17;43.08
75312;BME280;63906;55.686;37.532;2023-06-04T14:31:05;99979.22;;;17.85;39.35
75312;BME280;63906;55.686;37.532;2023-06-04T14:36:06;99982.38;;;18.28;35.05
75312;BME280;63906;55.686;37.532;2023-06-04T14:41:07;99987.44;;;17.83;39.39
75312;BME280;63906;55.686;37.532;2023-06-04T14:46:07;99960.94;;;17.28;37.95
75312;BME280;63906;55.686;37.532;2023-06-04T14:51:08;99953.25;;;16.90;40.41
75312;BME280;63906;55.686;37.532;2023-06-04T14:56:08;99968.31;;;16.96;41.42
75312;BME280;63906;55.686;37.532;2023-06-04T15:01:09;99980.31;;;17.17;46.63
75312;BME280;63906;55.686;37.532;2023-06-04T15:06:10;99941.59;;;16.73;43.10
75312;BME280;63906;55.686;37.532;2023-06-04T15:11:11;99945.88;;;16.30;42.28
75312;BME280;63906;55.686;37.532;2023-06-04T15:16:12;99958.72;;;16.08;45.72
75312;BME280;63906;55.686;37.532;2023-06-04T15:21:12;99933.81;;;16.09;43.18
75312;BME280;63906;55.686;37.532;2023-06-04T15:26:13;99972.88;;;16.46;44.92
75312;BME280;63906;55.686;37.532;2023-06-04T15:31:14;99936.59;;;15.96;43.82
75312;BME280;63906;55.686;37.532;2023-06-04T15:36:14;99937.44;;;16.15;41.42
75312;BME280;63906;55.686;37.532;2023-06-04T15:41:15;99933.31;;;15.94;44.02
75312;BME280;63906;55.686;37.532;2023-06-04T15:46:16;99939.94;;;15.85;43.05
75312;BME280;63906;55.686;37.532;2023-06-04T15:51:16;99951.84;;;16.26;45.74
75312;BME280;63906;55.686;37.532;2023-06-04T15:56:17;99935.03;;;16.07;45.24
75312;BME280;63906;55.686;37.532;2023-06-04T16:01:19;99954.84;;;16.11;46.09
75312;BME280;63906;55.686;37.532;2023-06-04T16:06:20;99963.72;;;15.98;41.69
75312;BME280;63906;55.686;37.532;2023-06-04T16:11:23;99964.41;;;15.87;46.78
75312;BME280;63906;55.686;37.532;2023-06-04T16:16:24;99959.38;;;15.79;48.06
75312;BME280;63906;55.686;37.532;2023-06-04T16:21:25;99958.44;;;15.67;44.28
75312;BME280;63906;55.686;37.532;2023-06-04T16:26:26;99907.66;;;15.25;41.43
75312;BME280;63906;55.686;37.532;2023-06-04T16:31:26;99969.22;;;15.33;46.90
75312;BME280;63906;55.686;37.532;2023-06-04T16:36:27;99960.75;;;15.12;43.95
75312;BME280;63906;55.686;37.532;2023-06-04T16:41:28;99947.00;;;14.83;46.06
75312;BME280;63906;55.686;37.532;2023-06-04T16:46:28;99951.13;;;14.59;48.54
75312;BME280;63906;55.686;37.532;2023-06-04T16:51:29;99964.41;;;14.39;50.06
75312;BME280;63906;55.686;37.532;2023-06-04T16:56:29;99968.31;;;14.23;49.54
75312;BME280;63906;55.686;37.532;2023-06-04T17:01:30;99948.78;;;13.91;60.04
75312;BME280;63906;55.686;37.532;2023-06-04T17:06:31;99974.41;;;13.97;53.69
75312;BME280;63906;55.686;37.532;2023-06-04T17:11:31;99949.97;;;13.69;49.47
75312;BME280;63906;55.686;37.532;2023-06-04T17:16:33;99888.03;;;13.17;51.83
75312;BME280;63906;55.686;37.532;2023-06-04T17:21:33;99972.31;;;13.60;53.70
75312;BME280;63906;55.686;37.532;2023-06-04T17:26:35;99944.38;;;13.24;54.71
75312;BME280;63906;55.686;37.532;2023-06-04T17:31:35;99947.53;;;13.06;55.85
75312;BME280;63906;55.686;37.532;2023-06-04T17:36:36;99969.31;;;13.15;56.38
75312;BME280;63906;55.686;37.532;2023-06-04T17:41:38;99947.63;;;12.78;57.55
75312;BME280;63906;55.686;37.532;2023-06-04T17:46:38;99964.25;;;12.72;56.95
75312;BME280;63906;55.686;37.532;2023-06-04T17:51:39;99952.94;;;12.44;59.18
75312;BME280;63906;55.686;37.532;2023-06-04T17:56:39;99987.25;;;12.44;59.21
75312;BME280;63906;55.686;37.532;2023-06-04T18:01:40;99970.78;;;12.13;61.20
75312;BME280;63906;55.686;37.532;2023-06-04T18:06:41;99948.13;;;11.76;61.64
75312;BME280;63906;55.686;37.532;2023-06-04T18:11:41;99960.41;;;11.48;63.03
75312;BME280;63906;55.686;37.532;2023-06-04T18:16:42;99959.44;;;11.34;64.21
75312;BME280;63906;55.686;37.532;2023-06-04T18:21:43;99947.00;;;11.07;63.53
75312;BME280;63906;55.686;37.532;2023-06-04T18:26:43;99980.66;;;11.11;63.37
75312;BME280;63906;55.686;37.532;2023-06-04T18:31:44;99978.16;;;10.88;64.84
75312;BME280;63906;55.686;37.532;2023-06-04T18:36:44;99978.16;;;10.73;64.60
75312;BME280;63906;55.686;37.532;2023-06-04T18:41:46;99987.25;;;10.56;63.77
75312;BME280;63906;55.686;37.532;2023-06-04T18:46:47;99973.44;;;10.39;64.80
75312;BME280;63906;55.686;37.532;2023-06-04T18:51:51;99975.25;;;10.39;63.93
75312;BME280;63906;55.686;37.532;2023-06-04T18:56:52;99975.97;;;10.33;65.00
75312;BME280;63906;55.686;37.532;2023-06-04T19:01:53;99940.94;;;9.94;65.00
75312;BME280;63906;55.686;37.532;2023-06-04T19:06:56;99966.97;;;10.04;66.13
75312;BME280;63906;55.686;37.532;2023-06-04T19:11:56;99978.16;;;10.06;66.70
75312;BME280;63906;55.686;37.532;2023-06-04T19:17:00;99953.31;;;9.86;66.70
75312;BME280;63906;55.686;37.532;2023-06-04T19:22:01;99918.34;;;9.62;68.77
75312;BME280;63906;55.686;37.532;2023-06-04T19:27:01;99974.41;;;10.23;68.48
75312;BME280;63906;55.686;37.532;2023-06-04T19:32:02;99950.38;;;10.04;67.52
75312;BME280;63906;55.686;37.532;2023-06-04T19:37:03;99963.63;;;10.10;65.42
75312;BME280;63906;55.686;37.532;2023-06-04T19:42:04;99971.81;;;10.15;65.21
75312;BME280;63906;55.686;37.532;2023-06-04T19:47:05;99956.31;;;10.20;67.26
75312;BME280;63906;55.686;37.532;2023-06-04T19:52:06;99974.88;;;10.42;67.74
75312;BME280;63906;55.686;37.532;2023-06-04T19:57:06;99969.06;;;10.61;66.63
75312;BME280;63906;55.686;37.532;2023-06-04T20:02:10;99950.41;;;10.56;66.63
75312;BME280;63906;55.686;37.532;2023-06-04T20:07:10;99960.38;;;10.75;65.31
75312;BME280;63906;55.686;37.532;2023-06-04T20:12:11;99964.47;;;10.78;65.57
75312;BME280;63906;55.686;37.532;2023-06-04T20:17:12;99936.75;;;10.67;66.61
75312;BME280;63906;55.686;37.532;2023-06-04T20:22:12;99961.78;;;10.93;67.25
75312;BME280;63906;55.686;37.532;2023-06-04T20:27:13;99928.88;;;10.82;64.54
75312;BME280;63906;55.686;37.532;2023-06-04T20:32:17;99924.84;;;10.86;63.37
75312;BME280;63906;55.686;37.532;2023-06-04T20:37:17;99946.84;;;10.93;66.07
75312;BME280;63906;55.686;37.532;2023-06-04T20:42:17;99954.63;;;11.01;65.79
75312;BME280;63906;55.686;37.532;2023-06-04T20:47:18;99955.00;;;10.84;63.10
75312;BME280;63906;55.686;37.532;2023-06-04T20:52:19;99936.84;;;10.74;64.25
75312;BME280;63906;55.686;37.532;2023-06-04T20:57:19;99938.41;;;10.68;64.98
75312;BME280;63906;55.686;37.532;2023-06-04T21:02:20;99945.00;;;10.79;63.76
75312;BME280;63906;55.686;37.532;2023-06-04T21:07:21;99945.47;;;10.68;66.18
75312;BME280;63906;55.686;37.532;2023-06-04T21:12:21;99925.72;;;10.57;68.50
75312;BME280;63906;55.686;37.532;2023-06-04T21:17:22;99946.03;;;10.63;64.97
75312;BME280;63906;55.686;37.532;2023-06-04T21:22:22;99912.53;;;10.42;63.52
75312;BME280;63906;55.686;37.532;2023-06-04T21:27:23;99941.31;;;10.59;67.55
75312;BME280;63906;55.686;37.532;2023-06-04T21:32:23;99933.94;;;10.54;65.28
75312;BME280;63906;55.686;37.532;2023-06-04T21:37:24;99909.81;;;10.36;69.69
75312;BME280;63906;55.686;37.532;2023-06-04T21:42:24;99940.84;;;10.55;63.78
75312;BME280;63906;55.686;37.532;2023-06-04T21:47:25;99912.50;;;10.13;67.71
75312;BME280;63906;55.686;37.532;2023-06-04T21:52:26;99940.13;;;10.32;66.63
75312;BME280;63906;55.686;37.532;2023-06-04T21:57:26;99950.28;;;10.35;65.46
75312;BME280;63906;55.686;37.532;2023-06-04T22:02:27;99905.09;;;9.93;65.20
75312;BME280;63906;55.686;37.532;2023-06-04T22:07:27;99935.78;;;10.01;66.39
75312;BME280;63906;55.686;37.532;2023-06-04T22:12:28;99941.78;;;10.10;66.88
75312;BME280;63906;55.686;37.532;2023-06-04T22:17:28;99937.25;;;10.18;64.26
75312;BME280;63906;55.686;37.532;2023-06-04T22:22:29;99921.97;;;9.99;65.84
75312;BME280;63906;55.686;37.532;2023-06-04T22:27:29;99906.53;;;9.81;66.96
75312;BME280;63906;55.686;37.532;2023-06-04T22:32:30;99936.13;;;9.98;65.65
75312;BME280;63906;55.686;37.532;2023-06-04T22:37:30;99910.34;;;9.79;68.01
75312;BME280;63906;55.686;37.532;2023-06-04T22:42:31;99932.88;;;9.96;68.41
75312;BME280;63906;55.686;37.532;2023-06-04T22:47:31;99939.19;;;9.87;69.08
75312;BME280;63906;55.686;37.532;2023-06-04T22:52:32;99911.75;;;9.66;67.83
75312;BME280;63906;55.686;37.532;2023-06-04T22:57:32;99935.19;;;9.76;69.88
75312;BME280;63906;55.686;37.532;2023-06-04T23:02:33;99915.25;;;9.82;65.79
75312;BME280;63906;55.686;37.532;2023-06-04T23:07:34;99931.75;;;9.76;64.66
75312;BME280;63906;55.686;37.532;2023-06-04T23:12:35;99923.97;;;9.59;67.25
75312;BME280;63906;55.686;37.532;2023-06-04T23:17:35;99912.81;;;9.57;70.70
75312;BME280;63906;55.686;37.532;2023-06-04T23:22:36;99929.81;;;9.69;66.41
75312;BME280;63906;55.686;37.532;2023-06-04T23:27:37;99940.47;;;9.91;66.82
75312;BME280;63906;55.686;37.532;2023-06-04T23:32:38;99931.78;;;10.05;64.57
75312;BME280;63906;55.686;37.532;2023-06-04T23:37:38;99932.78;;;10.42;63.42
75312;BME280;63906;55.686;37.532;2023-06-04T23:42:39;99903.03;;;10.27;63.48
75312;BME280;63906;55.686;37.532;2023-06-04T23:47:40;99932.31;;;10.53;63.06
75312;BME280;63906;55.686;37.532;2023-06-04T23:52:40;99903.19;;;10.40;62.80
75312;BME280;63906;55.686;37.532;2023-06-04T23:57:41;99921.91;;;10.45;62.54
